94-й км

Карта отелей и гостиниц, располагающихся рядом с аэропортом 94-й км :

94-й км Ханты-Мансийский автономный округ - Югра 62° 57' 50.4" N, 62° 32' 42.36" E
94-й км Ханты-Мансийский автономный округ - Югра 62° 57' 50.4" N, 62° 32' 42.36" E
Код аэродрома ИКАО
HA8Q
Код аэродрома RU
ХА8Я
Координаты
N62.96400° E062.54510°
Превышение над уровнем моря
62
Основная полоса
34/16
Курс магнитный
342,8/162,8
Длина основной ВПП
20
Ширина основной ВПП
20
Покрытие основной ВПП
Твёрдое
Освещение ВПП
Нет
Тип: 
Вертодром
Класс аэродрома: 
Принадлежность: 
ГА
Статус: 
Действующий
Сайт: 
E-mail аэродрома: 
Страна: 
Россия
Регион: 
Ханты-Мансийский автономный округ - Югра
Город: 
Дополнительная информация: 
Оператор: ГазПромАвиа.

Найти трансфер

С помощью этой формы Вы можете найти трансфер из аэропорта 94-й км в город, аэропорт или вокзал:

Карта места

Javascript is required to view this map.

Погода в аэропортах:

Авиационная погода в Рощино

Регион: 
Погода METAR: 
USTR 241500Z 14006MPS 3200 -SHRA BR SCT007 OVC015CB 06/06 Q1004 R21/290060 R30/290060 TEMPO 3100 -SHRA BR BKN003 BKN016CB
Время наблюдения
2021-10-24T15:00:00Z
Температура C
6.0
Точка росы
6.0
Направление ветра
140
Скорость ветра (узлы)
12
Метео видимость
1.99
Явления погоды
-SHRA BR
Условия полета
IFR
Аэропорт подробнее: 

Авиационная погода в аэропорту Алыкель

Регион: 
Погода METAR: 
UOOO 241700Z 06003MPS 3100 -SN SCT012 M03/M03 Q0987 R01/491048 NOSIG RMK QFE726/0968
Время наблюдения
2021-10-24T17:00:00Z
Температура C
-3.0
Точка росы
-3.0
Направление ветра
60
Скорость ветра (узлы)
6
Метео видимость
1.93
Явления погоды
-SN
Условия полета
IFR
Аэропорт подробнее: 

Авиационная погода в Ботсфьорде

Регион: 
Погода METAR: 
ENBS 241420Z 28005KT 9999 -SHSN FEW016 SCT023 BKN045 M01/M03 Q1012
Время наблюдения
2021-10-24T14:20:00Z
Температура C
-1.0
Точка росы
-3.0
Направление ветра
280
Скорость ветра (узлы)
5
Метео видимость
6.21
Явления погоды
-SHSN
Условия полета
VFR

Авиационная погода в Нижнем Новгороде

Регион: 
Погода METAR: 
UWGG 241700Z 31006MPS 9999 -SHRA OVC010CB 02/01 Q1011 R36R/290050 NOSIG
Время наблюдения
2021-10-24T17:00:00Z
Температура C
2.0
Точка росы
1.0
Направление ветра
310
Скорость ветра (узлы)
12
Метео видимость
6.21
Явления погоды
-SHRA
Условия полета
MVFR
Аэропорт подробнее: